createdAt,value
2018-12-01T00:00:02.535Z,3.47
2018-12-01T00:02:38.066Z,4.53
2018-12-01T00:05:28.561Z,4.23
2018-12-01T00:08:03.931Z,3.80
2018-12-01T00:10:39.137Z,4.07
2018-12-01T00:13:14.568Z,3.93
2018-12-01T00:15:49.874Z,3.80
2018-12-01T00:18:25.427Z,3.73
2018-12-01T00:21:00.935Z,4.77
2018-12-01T00:23:36.338Z,3.70
2018-12-01T00:26:11.660Z,4.20
2018-12-01T00:28:47.080Z,3.97
2018-12-01T00:31:22.491Z,3.90
2018-12-01T00:33:57.776Z,3.80
2018-12-01T00:36:33.006Z,4.53
2018-12-01T00:39:08.589Z,4.30
2018-12-01T00:41:43.870Z,4.73
2018-12-01T00:44:19.331Z,4.60
2018-12-01T00:46:54.811Z,5.00
2018-12-01T00:49:30.189Z,4.87
2018-12-01T00:52:05.812Z,5.03
2018-12-01T00:54:41.260Z,4.40
2018-12-01T00:57:16.592Z,4.30
2018-12-01T00:59:51.987Z,4.60
2018-12-01T01:02:33.845Z,5.27
2018-12-01T01:05:09.078Z,5.87
2018-12-01T01:07:44.542Z,5.63
2018-12-01T01:10:20.668Z,5.73
2018-12-01T01:12:55.957Z,6.63
2018-12-01T01:15:31.372Z,6.70
2018-12-01T01:18:06.998Z,7.37
2018-12-01T01:20:42.335Z,7.03
2018-12-01T01:23:17.622Z,7.00
2018-12-01T01:25:53.586Z,6.97
2018-12-01T01:28:28.962Z,6.70
2018-12-01T01:31:04.259Z,7.60
2018-12-01T01:33:39.760Z,6.23
2018-12-01T01:36:15.006Z,6.53
2018-12-01T01:38:50.360Z,6.47
2018-12-01T01:41:25.719Z,6.47
2018-12-01T01:44:01.139Z,6.67
2018-12-01T01:46:36.525Z,7.30
2018-12-01T01:49:11.789Z,7.57
2018-12-01T01:51:47.161Z,7.70
2018-12-01T01:54:22.659Z,8.63
2018-12-01T01:56:57.839Z,8.90
2018-12-01T01:59:33.243Z,9.27
2018-12-01T02:02:08.514Z,8.93
2018-12-01T02:04:43.848Z,8.17
2018-12-01T02:07:19.139Z,8.53
2018-12-01T02:09:54.565Z,9.20
2018-12-01T02:12:29.864Z,8.57
2018-12-01T02:15:06.144Z,9.70
2018-12-01T02:17:41.569Z,8.53
2018-12-01T02:20:17.633Z,9.57
2018-12-01T02:22:53.711Z,9.23
2018-12-01T02:25:29.940Z,9.53
2018-12-01T02:28:05.813Z,9.97
2018-12-01T02:30:41.274Z,10.27
2018-12-01T02:33:16.612Z,10.13
2018-12-01T02:35:52.062Z,9.93
2018-12-01T02:38:27.362Z,9.40
2018-12-01T02:41:02.602Z,10.13
2018-12-01T02:43:38.058Z,9.40
2018-12-01T02:47:16.729Z,9.37
2018-12-01T02:49:52.275Z,9.57
2018-12-01T02:52:27.561Z,9.80
2018-12-01T02:55:03.045Z,10.13
2018-12-01T02:57:38.318Z,9.23
2018-12-01T03:00:13.734Z,9.50
2018-12-01T03:02:49.131Z,8.77
2018-12-01T03:05:24.746Z,9.07
2018-12-01T03:08:00.066Z,9.60
2018-12-01T03:10:35.482Z,9.80
2018-12-01T03:13:10.735Z,9.33
2018-12-01T03:15:45.986Z,10.43
2018-12-01T03:18:21.417Z,9.47
2018-12-01T03:20:56.809Z,9.67
2018-12-01T03:23:32.160Z,9.03
2018-12-01T03:26:07.654Z,8.93
2018-12-01T03:28:43.105Z,9.50
2018-12-01T03:31:22.314Z,9.70
2018-12-01T03:33:57.643Z,8.33
2018-12-01T03:36:33.122Z,9.13
2018-12-01T03:39:10.010Z,8.97
2018-12-01T03:41:45.595Z,8.53
2018-12-01T03:44:20.996Z,9.60
2018-12-01T03:46:56.349Z,7.80
2018-12-01T03:49:31.647Z,8.97
2018-12-01T03:52:07.163Z,8.83
2018-12-01T03:54:42.514Z,8.13
2018-12-01T03:57:17.881Z,8.27
2018-12-01T03:59:53.324Z,8.33
2018-12-01T04:02:28.763Z,8.67
2018-12-01T04:05:04.033Z,8.17
2018-12-01T04:07:39.370Z,7.30
2018-12-01T04:10:14.547Z,8.37
2018-12-01T04:12:50.100Z,8.73
2018-12-01T04:15:25.892Z,9.63
2018-12-01T04:18:01.314Z,9.57
2018-12-01T04:20:36.582Z,9.20
2018-12-01T04:23:12.049Z,8.60
2018-12-01T04:25:47.358Z,11.20
2018-12-01T04:28:22.702Z,12.03
2018-12-01T04:30:58.077Z,17.40
2018-12-01T04:33:33.586Z,12.63
2018-12-01T04:36:08.927Z,11.47
2018-12-01T04:38:44.246Z,10.77
2018-12-01T04:41:19.795Z,9.07
2018-12-01T04:43:55.163Z,10.00
2018-12-01T04:46:30.531Z,10.07
2018-12-01T04:49:06.034Z,12.13
2018-12-01T04:51:41.353Z,7.90
2018-12-01T04:54:16.830Z,10.00
2018-12-01T04:56:52.160Z,8.20
2018-12-01T04:59:27.627Z,8.37
2018-12-01T05:02:02.959Z,8.33
2018-12-01T05:04:38.467Z,8.63
2018-12-01T05:07:13.885Z,8.77
2018-12-01T05:09:49.305Z,8.80
2018-12-01T05:12:24.575Z,8.80
2018-12-01T05:14:59.941Z,9.83
2018-12-01T05:17:35.484Z,9.77
2018-12-01T05:20:14.985Z,10.47
2018-12-01T05:22:50.843Z,11.60
2018-12-01T05:25:26.093Z,9.67
2018-12-01T05:28:01.449Z,9.77
2018-12-01T05:30:36.857Z,10.23
2018-12-01T05:33:12.105Z,10.10
2018-12-01T05:35:47.664Z,9.93
2018-12-01T05:38:23.066Z,9.90
2018-12-01T05:40:58.529Z,9.40
2018-12-01T05:43:33.810Z,9.27
2018-12-01T05:46:09.234Z,9.40
2018-12-01T05:48:44.482Z,9.97
2018-12-01T05:51:19.940Z,9.53
2018-12-01T05:53:55.430Z,9.93
2018-12-01T05:56:30.887Z,9.57
2018-12-01T05:59:06.494Z,9.47
2018-12-01T06:01:41.852Z,9.73
2018-12-01T06:04:17.266Z,8.90
2018-12-01T06:06:52.503Z,8.37
2018-12-01T06:09:27.904Z,9.10
2018-12-01T06:12:03.244Z,10.60
2018-12-01T06:14:38.806Z,9.83
2018-12-01T06:17:14.175Z,9.27
2018-12-01T06:19:49.684Z,10.40
2018-12-01T06:22:25.173Z,11.83
2018-12-01T06:25:00.671Z,11.37
2018-12-01T06:27:36.082Z,10.47
2018-12-01T06:30:15.591Z,10.53
2018-12-01T06:32:51.798Z,10.17
2018-12-01T06:35:27.784Z,11.10
2018-12-01T06:38:03.080Z,12.77
2018-12-01T06:40:38.553Z,11.63
2018-12-01T06:43:13.890Z,10.27
2018-12-01T06:45:49.338Z,9.83
2018-12-01T06:48:24.826Z,10.77
2018-12-01T06:51:01.084Z,10.60
2018-12-01T06:53:36.699Z,10.10
2018-12-01T06:56:13.471Z,10.53
2018-12-01T06:58:48.943Z,10.00
2018-12-01T07:01:24.336Z,11.50
2018-12-01T07:03:59.744Z,10.53
2018-12-01T07:06:35.088Z,19.37
2018-12-01T07:09:10.722Z,12.50
2018-12-01T07:11:46.120Z,12.57
2018-12-01T07:14:21.926Z,11.23
2018-12-01T07:16:57.744Z,10.83
2018-12-01T07:19:34.364Z,12.67
2018-12-01T07:22:09.986Z,11.60
2018-12-01T07:24:45.615Z,11.77
2018-12-01T07:27:21.085Z,10.27
2018-12-01T07:29:58.185Z,10.23
2018-12-01T07:32:32.017Z,10.70
2018-12-01T07:35:08.342Z,10.43
2018-12-01T07:37:43.753Z,10.63
2018-12-01T07:40:19.200Z,10.87
2018-12-01T07:42:54.755Z,11.27
2018-12-01T07:45:30.090Z,10.90
2018-12-01T07:48:05.553Z,10.50
2018-12-01T07:50:40.802Z,9.67
2018-12-01T07:53:17.532Z,10.40
2018-12-01T07:55:51.592Z,9.90
2018-12-01T07:58:26.998Z,10.47
2018-12-01T08:01:02.629Z,11.43
2018-12-01T08:03:38.094Z,9.60
2018-12-01T08:06:13.571Z,10.23
2018-12-01T08:08:49.467Z,10.43
2018-12-01T08:11:25.203Z,10.97
2018-12-01T08:14:00.587Z,9.23
2018-12-01T08:16:36.043Z,9.23
2018-12-01T08:19:11.587Z,9.37
2018-12-01T08:21:47.152Z,9.33
2018-12-01T08:24:22.398Z,9.43
2018-12-01T08:26:57.779Z,9.17
2018-12-01T08:29:33.243Z,8.63
2018-12-01T08:32:08.604Z,9.23
2018-12-01T08:34:45.939Z,8.93
2018-12-01T08:37:21.763Z,8.80
2018-12-01T08:39:57.232Z,8.57
2018-12-01T08:42:32.979Z,8.00
2018-12-01T08:45:09.886Z,7.50
2018-12-01T08:47:45.565Z,8.27
2018-12-01T08:50:22.283Z,6.80
2018-12-01T08:52:57.719Z,6.67
2018-12-01T08:55:33.188Z,8.17
2018-12-01T08:58:08.455Z,6.67
2018-12-01T09:00:43.819Z,6.50
2018-12-01T09:03:23.434Z,6.43
2018-12-01T09:05:58.976Z,8.77
2018-12-01T09:08:34.383Z,6.37
2018-12-01T09:11:09.775Z,7.47
2018-12-01T09:13:45.481Z,6.50
2018-12-01T09:16:21.086Z,7.00
2018-12-01T09:18:59.278Z,6.53
2018-12-01T09:21:35.755Z,8.43
2018-12-01T09:24:13.058Z,6.33
2018-12-01T09:26:51.632Z,6.43
2018-12-01T09:29:28.710Z,6.70
2018-12-01T09:32:04.103Z,5.80
2018-12-01T09:34:39.630Z,9.03
2018-12-01T09:37:14.932Z,5.50
2018-12-01T09:39:51.418Z,5.87
2018-12-01T09:42:26.886Z,5.50
2018-12-01T09:45:02.203Z,5.73
2018-12-01T09:47:37.569Z,4.83
2018-12-01T09:50:13.828Z,4.90
2018-12-01T09:52:56.790Z,4.23
2018-12-01T09:55:32.507Z,4.30
2018-12-01T09:58:08.926Z,4.47
2018-12-01T10:00:44.471Z,4.30
2018-12-01T10:03:20.188Z,4.33
2018-12-01T10:05:55.685Z,3.83
2018-12-01T10:08:31.056Z,4.60
2018-12-01T10:11:06.584Z,3.50
2018-12-01T10:13:42.008Z,3.83
2018-12-01T10:16:17.507Z,3.90
2018-12-01T10:18:56.455Z,3.30
2018-12-01T10:21:28.481Z,3.87
2018-12-01T10:24:03.790Z,3.87
2018-12-01T10:26:39.092Z,3.57
2018-12-01T10:29:14.493Z,3.53
2018-12-01T10:31:49.973Z,3.33
2018-12-01T10:34:25.585Z,3.70
2018-12-01T10:37:00.914Z,4.23
2018-12-01T10:39:36.333Z,3.63
2018-12-01T10:42:11.864Z,5.63
2018-12-01T10:44:47.193Z,3.63
2018-12-01T10:47:22.630Z,3.83
2018-12-01T10:49:58.130Z,3.40
2018-12-01T10:52:33.336Z,3.87
2018-12-01T10:55:39.734Z,3.13
2018-12-01T10:58:16.872Z,3.00
2018-12-01T11:00:57.773Z,3.50
2018-12-01T11:03:42.193Z,3.77
2018-12-01T11:06:20.023Z,4.13
2018-12-01T11:08:55.896Z,3.37
2018-12-01T11:11:31.413Z,3.60
2018-12-01T11:14:06.824Z,3.83
2018-12-01T11:16:42.142Z,4.10
2018-12-01T11:19:17.745Z,4.20
2018-12-01T11:21:53.234Z,3.80
2018-12-01T11:24:28.550Z,3.80
2018-12-01T11:27:03.886Z,3.63
2018-12-01T11:29:39.339Z,3.67
2018-12-01T11:32:15.921Z,4.20
2018-12-01T11:34:51.558Z,4.40
2018-12-01T11:37:27.061Z,4.57
2018-12-01T11:40:02.508Z,4.90
2018-12-01T11:42:38.149Z,4.47
2018-12-01T11:45:14.696Z,3.60
2018-12-01T11:47:50.019Z,4.80
2018-12-01T11:50:25.473Z,3.80
2018-12-01T11:53:00.842Z,3.33
2018-12-01T11:55:36.422Z,3.87
2018-12-01T11:58:11.819Z,4.23
2018-12-01T12:00:47.277Z,3.30
2018-12-01T12:03:22.621Z,4.00
2018-12-01T12:05:58.114Z,3.50
2018-12-01T12:08:33.683Z,3.70
2018-12-01T12:11:09.098Z,3.13
2018-12-01T12:13:45.745Z,3.33
2018-12-01T12:16:21.058Z,3.47
2018-12-01T12:18:56.631Z,3.40
2018-12-01T12:21:32.875Z,3.43
2018-12-01T12:24:08.690Z,3.77
2018-12-01T12:26:44.388Z,3.67
2018-12-01T12:29:20.046Z,3.50
2018-12-01T12:31:55.383Z,3.23
2018-12-01T12:34:30.710Z,3.30
2018-12-01T12:37:06.509Z,3.37
2018-12-01T12:39:41.943Z,3.07
2018-12-01T12:42:19.884Z,3.17
2018-12-01T12:44:56.163Z,2.90
2018-12-01T12:47:34.525Z,2.90
2018-12-01T12:50:16.838Z,3.17
2018-12-01T12:52:53.202Z,3.80
2018-12-01T12:55:33.778Z,2.97
2018-12-01T12:58:09.719Z,3.13
2018-12-01T13:00:46.411Z,2.70
2018-12-01T13:03:22.133Z,3.07
2018-12-01T13:05:58.428Z,3.90
2018-12-01T13:08:34.511Z,3.37
2018-12-01T13:11:10.546Z,3.23
2018-12-01T13:13:45.857Z,2.70
2018-12-01T13:16:21.432Z,3.10
2018-12-01T13:18:56.850Z,3.30
2018-12-01T13:21:32.993Z,3.07
2018-12-01T13:24:08.760Z,3.37
2018-12-01T13:26:44.332Z,3.60
2018-12-01T13:29:20.111Z,2.77
2018-12-01T13:31:55.572Z,2.60
2018-12-01T13:34:31.853Z,2.90
2018-12-01T13:37:07.735Z,2.80
2018-12-01T13:39:43.197Z,2.90
2018-12-01T13:42:18.656Z,8.47
2018-12-01T13:44:53.990Z,9.17
2018-12-01T13:47:29.343Z,7.30
2018-12-01T13:50:11.201Z,16.33
2018-12-01T13:52:57.670Z,11.00
2018-12-01T13:55:35.337Z,9.20
2018-12-01T13:58:12.529Z,7.20
2018-12-01T14:00:48.351Z,5.50
2018-12-01T14:03:23.830Z,4.97
2018-12-01T14:06:00.381Z,3.80
2018-12-01T14:08:35.818Z,3.60
2018-12-01T14:11:11.238Z,2.93
2018-12-01T14:13:46.778Z,4.00
2018-12-01T14:16:23.116Z,2.97
2018-12-01T14:18:58.681Z,2.40
2018-12-01T14:21:34.036Z,2.73
2018-12-01T14:24:09.368Z,3.43
2018-12-01T14:26:44.724Z,2.60
2018-12-01T14:29:20.088Z,1.83
2018-12-01T14:31:55.413Z,2.00
2018-12-01T14:34:30.826Z,1.80
2018-12-01T14:37:06.173Z,1.70
2018-12-01T14:39:41.733Z,1.87
2018-12-01T14:42:17.242Z,1.83
2018-12-01T14:44:52.544Z,1.90
2018-12-01T14:47:28.164Z,1.90
2018-12-01T14:50:03.528Z,2.03
2018-12-01T14:52:39.015Z,2.10
2018-12-01T14:55:15.672Z,2.00
2018-12-01T14:57:51.021Z,1.90
2018-12-01T15:00:26.630Z,1.90
2018-12-01T15:03:01.956Z,2.07
2018-12-01T15:05:37.958Z,2.10
2018-12-01T15:08:17.229Z,2.00
2018-12-01T15:10:55.857Z,2.07
2018-12-01T15:13:34.976Z,2.60
2018-12-01T15:16:13.197Z,2.60
2018-12-01T15:18:51.815Z,3.13
2018-12-01T15:21:27.323Z,2.53
2018-12-01T15:24:02.688Z,2.23
2018-12-01T15:26:38.182Z,2.10
2018-12-01T15:29:16.507Z,2.10
2018-12-01T15:31:52.600Z,1.80
2018-12-01T15:34:28.082Z,2.27
2018-12-01T15:37:03.498Z,1.90
2018-12-01T15:39:40.793Z,1.80
2018-12-01T15:42:16.600Z,1.70
2018-12-01T15:44:52.104Z,2.17
2018-12-01T15:47:27.438Z,2.73
2018-12-01T15:50:02.782Z,2.27
2018-12-01T15:52:38.514Z,1.93
2018-12-01T15:55:13.861Z,2.03
2018-12-01T15:57:49.460Z,2.43
2018-12-01T16:00:26.049Z,2.10
2018-12-01T16:03:02.503Z,2.57
2018-12-01T16:05:38.046Z,2.20
2018-12-01T16:08:13.638Z,2.57
2018-12-01T16:10:48.951Z,2.60
2018-12-01T16:13:25.367Z,2.60
2018-12-01T16:16:04.015Z,2.40
2018-12-01T16:18:39.407Z,3.30
2018-12-01T16:21:14.697Z,2.63
2018-12-01T16:23:50.246Z,2.80
2018-12-01T16:26:25.619Z,2.73
2018-12-01T16:29:00.934Z,2.70
2018-12-01T16:31:36.406Z,2.27
2018-12-01T16:34:11.869Z,2.77
2018-12-01T16:36:47.304Z,2.47
2018-12-01T16:39:22.939Z,1.87
2018-12-01T16:41:58.289Z,2.30
2018-12-01T16:44:33.829Z,2.53
2018-12-01T16:47:09.231Z,2.83
2018-12-01T16:49:44.597Z,2.87
2018-12-01T16:52:19.985Z,3.47
2018-12-01T16:54:55.414Z,2.77
2018-12-01T16:57:30.839Z,2.40
2018-12-01T17:00:13.534Z,2.40
2018-12-01T17:02:53.563Z,2.30
2018-12-01T17:05:32.641Z,3.53
2018-12-01T17:08:08.174Z,3.03
2018-12-01T17:10:43.580Z,3.20
2018-12-01T17:13:19.083Z,3.13
2018-12-01T17:15:54.349Z,3.20
2018-12-01T17:18:29.750Z,3.23
2018-12-01T17:21:06.084Z,3.10
2018-12-01T17:23:43.034Z,3.03
2018-12-01T17:26:19.062Z,3.50
2018-12-01T17:28:54.816Z,2.87
2018-12-01T17:31:30.397Z,3.17
2018-12-01T17:34:06.458Z,3.10
2018-12-01T17:36:42.790Z,2.40
2018-12-01T17:39:20.246Z,3.30
2018-12-01T17:41:58.082Z,2.43
2018-12-01T17:44:34.281Z,2.97
2018-12-01T17:47:11.255Z,3.30
2018-12-01T17:49:47.234Z,3.50
2018-12-01T17:52:22.769Z,3.60
2018-12-01T17:54:58.233Z,3.93
2018-12-01T17:57:33.634Z,3.90
2018-12-01T18:00:18.554Z,4.00
2018-12-01T18:02:55.470Z,4.43
2018-12-01T18:05:38.904Z,4.03
2018-12-01T18:08:19.365Z,4.50
2018-12-01T18:10:58.237Z,5.50
2018-12-01T18:13:36.323Z,4.63
2018-12-01T18:16:13.647Z,4.47
2018-12-01T18:18:51.513Z,4.27
2018-12-01T18:21:29.992Z,4.20
2018-12-01T18:24:05.891Z,4.37
2018-12-01T18:26:41.329Z,4.83
2018-12-01T18:29:16.778Z,4.87
2018-12-01T18:31:52.119Z,5.00
2018-12-01T18:34:27.730Z,6.00
2018-12-01T18:37:03.969Z,4.37
2018-12-01T18:39:39.467Z,4.50
2018-12-01T18:42:15.005Z,4.70
2018-12-01T18:44:50.362Z,5.20
2018-12-01T18:47:25.730Z,4.33
2018-12-01T18:50:01.221Z,4.83
2018-12-01T18:52:36.820Z,5.13
2018-12-01T18:55:14.372Z,5.30
2018-12-01T18:57:49.643Z,4.77
2018-12-01T19:00:27.656Z,4.90
2018-12-01T19:03:02.983Z,5.10
2018-12-01T19:05:38.386Z,4.60
2018-12-01T19:08:14.198Z,4.87
2018-12-01T19:10:49.563Z,4.77
2018-12-01T19:13:24.935Z,5.20
2018-12-01T19:16:00.435Z,4.97
2018-12-01T19:18:36.876Z,5.90
2018-12-01T19:21:12.500Z,5.90
2018-12-01T19:23:48.172Z,4.97
2018-12-01T19:26:23.551Z,5.20
2018-12-01T19:28:58.878Z,5.03
2018-12-01T19:31:37.741Z,5.13
2018-12-01T19:34:21.181Z,5.30
2018-12-01T19:37:00.187Z,5.17
2018-12-01T19:39:41.015Z,4.73
2018-12-01T19:42:20.053Z,5.27
2018-12-01T19:44:58.444Z,5.13
2018-12-01T19:47:36.676Z,5.63
2018-12-01T19:50:16.647Z,5.67
2018-12-01T19:52:52.001Z,4.87
2018-12-01T19:55:28.167Z,5.43
2018-12-01T19:58:12.746Z,5.43
2018-12-01T20:00:51.008Z,5.10
2018-12-01T20:03:27.832Z,4.90
2018-12-01T20:06:03.254Z,4.77
2018-12-01T20:08:38.801Z,4.90
2018-12-01T20:11:14.245Z,4.93
2018-12-01T20:13:49.817Z,5.10
2018-12-01T20:16:29.951Z,5.57
2018-12-01T20:19:06.522Z,5.33
2018-12-01T20:21:41.762Z,4.87
2018-12-01T20:24:18.140Z,5.30
2018-12-01T20:26:53.768Z,6.43
2018-12-01T20:29:29.190Z,6.67
2018-12-01T20:32:04.498Z,5.10
2018-12-01T20:34:40.051Z,5.03
2018-12-01T20:37:17.616Z,5.27
2018-12-01T20:39:53.655Z,4.83
2018-12-01T20:42:29.193Z,4.87
2018-12-01T20:45:07.038Z,4.67
2018-12-01T20:47:42.485Z,4.73
2018-12-01T20:50:17.968Z,4.97
2018-12-01T20:52:53.302Z,4.90
2018-12-01T20:55:29.904Z,4.57
2018-12-01T20:58:07.633Z,4.10
2018-12-01T21:00:43.119Z,4.50
2018-12-01T21:03:18.508Z,4.20
2018-12-01T21:05:54.036Z,4.80
2018-12-01T21:08:29.694Z,4.67
2018-12-01T21:11:07.590Z,5.50
2018-12-01T21:13:42.974Z,5.27
2018-12-01T21:16:18.760Z,6.27
2018-12-01T21:18:56.296Z,6.10
2018-12-01T21:21:31.623Z,5.63
2018-12-01T21:24:07.600Z,6.90
2018-12-01T21:26:43.073Z,7.37
2018-12-01T21:29:18.510Z,6.00
2018-12-01T21:31:53.915Z,5.70
2018-12-01T21:34:30.180Z,5.47
2018-12-01T21:37:05.730Z,5.50
2018-12-01T21:39:41.223Z,5.23
2018-12-01T21:42:16.634Z,5.80
2018-12-01T21:44:52.221Z,5.83
2018-12-01T21:47:27.651Z,4.93
2018-12-01T21:50:03.104Z,4.57
2018-12-01T21:52:39.025Z,4.60
2018-12-01T21:55:14.734Z,4.53
2018-12-01T21:57:51.103Z,4.07
2018-12-01T22:00:29.531Z,4.83
2018-12-01T22:03:08.429Z,4.00
2018-12-01T22:05:54.539Z,4.33
2018-12-01T22:08:32.020Z,5.10
2018-12-01T22:11:08.980Z,4.00
2018-12-01T22:13:43.874Z,4.00
2018-12-01T22:16:19.455Z,4.47
2018-12-01T22:18:54.780Z,4.20
2018-12-01T22:21:30.264Z,4.27
2018-12-01T22:24:05.786Z,4.07
2018-12-01T22:26:41.151Z,4.13
2018-12-01T22:29:16.541Z,3.93
2018-12-01T22:31:51.811Z,4.13
2018-12-01T22:34:28.372Z,4.13
2018-12-01T22:37:03.808Z,4.07
2018-12-01T22:39:39.158Z,3.90
2018-12-01T22:42:15.452Z,4.20
2018-12-01T22:44:50.662Z,3.80
2018-12-01T22:47:25.852Z,4.17
2018-12-01T22:50:01.329Z,4.67
2018-12-01T22:52:36.707Z,3.43
2018-12-01T22:55:16.297Z,4.33
2018-12-01T22:57:58.247Z,3.90
2018-12-01T23:00:41.189Z,4.17
2018-12-01T23:03:16.531Z,3.93
2018-12-01T23:05:51.960Z,3.70
2018-12-01T23:08:28.240Z,4.10
2018-12-01T23:11:03.663Z,3.53
2018-12-01T23:13:38.957Z,4.63
2018-12-01T23:16:14.654Z,4.50
2018-12-01T23:18:50.146Z,3.50
2018-12-01T23:21:25.439Z,4.30
2018-12-01T23:24:00.773Z,3.80
2018-12-01T23:26:36.336Z,3.90
2018-12-01T23:29:11.602Z,4.20
2018-12-01T23:31:46.879Z,4.63
2018-12-01T23:34:22.341Z,4.20
2018-12-01T23:36:57.885Z,4.50
2018-12-01T23:39:33.202Z,4.03
2018-12-01T23:42:08.469Z,4.07
2018-12-01T23:44:44.021Z,3.70
2018-12-01T23:47:19.396Z,3.90
2018-12-01T23:49:54.836Z,3.87
2018-12-01T23:52:30.206Z,3.80
2018-12-01T23:55:07.634Z,4.17
2018-12-01T23:57:43.024Z,3.73
